Clair Mel City, Florida
Current Conditions -  °F | °C
As of 11:53 AM on Saturday 25 Oct 2014 (Local Time) from KTPA Reporting Station
Clear Clear  
Wind Chill: 76°   Ceiling: Unl
Heat Index: 76°   Visibility: 10mi
Dew Point: 51°   Wind: 8mph
Humidity: 42%   Direction: 360°N
Pressure: 30.02"   Gusts: NA
Location:  27.9256°N, 82.3736°W
Report Text: KTPA 251553Z 36007KT 10SM CLR 24/11 A3002 RMK AO2 SLP166 T02440106
Loading
Personal Weather Stations






























Interactive Weather Map
Tropical Storm Tracking
New forecast layout! Learn more

10-Day Weather Forecast

Advertisements
Track Severe Weather on mobile